sensor_id;sensor_type;location;lat;lon;timestamp;P1;durP1;ratioP1;P2;durP2;ratioP2
72085;SDS011;64750;52.134;5.424;2023-06-22T00:01:18;7.60;;;4.93;;
72085;SDS011;64750;52.134;5.424;2023-06-22T00:03:47;5.55;;;4.93;;
72085;SDS011;64750;52.134;5.424;2023-06-22T00:06:14;5.00;;;4.53;;
72085;SDS011;64750;52.134;5.424;2023-06-22T00:08:40;4.95;;;4.50;;
72085;SDS011;64750;52.134;5.424;2023-06-22T00:11:07;5.07;;;4.60;;
72085;SDS011;64750;52.134;5.424;2023-06-22T00:13:33;5.40;;;4.90;;
72085;SDS011;64750;52.134;5.424;2023-06-22T00:16:00;5.25;;;4.70;;
72085;SDS011;64750;52.134;5.424;2023-06-22T00:18:27;5.18;;;4.68;;
72085;SDS011;64750;52.134;5.424;2023-06-22T00:20:55;5.72;;;5.22;;
72085;SDS011;64750;52.134;5.424;2023-06-22T00:23:23;5.28;;;4.88;;
72085;SDS011;64750;52.134;5.424;2023-06-22T00:25:50;4.90;;;4.50;;
72085;SDS011;64750;52.134;5.424;2023-06-22T00:28:17;5.65;;;5.15;;
72085;SDS011;64750;52.134;5.424;2023-06-22T00:30:44;5.63;;;4.75;;
72085;SDS011;64750;52.134;5.424;2023-06-22T00:33:11;5.43;;;4.93;;
72085;SDS011;64750;52.134;5.424;2023-06-22T00:35:37;4.97;;;4.57;;
72085;SDS011;64750;52.134;5.424;2023-06-22T00:38:07;5.20;;;4.70;;
72085;SDS011;64750;52.134;5.424;2023-06-22T00:40:34;5.10;;;4.55;;
72085;SDS011;64750;52.134;5.424;2023-06-22T00:43:01;4.97;;;4.57;;
72085;SDS011;64750;52.134;5.424;2023-06-22T00:45:28;5.22;;;4.82;;
72085;SDS011;64750;52.134;5.424;2023-06-22T00:47:55;5.05;;;4.60;;
72085;SDS011;64750;52.134;5.424;2023-06-22T00:50:25;5.47;;;5.07;;
72085;SDS011;64750;52.134;5.424;2023-06-22T00:52:57;5.82;;;5.20;;
72085;SDS011;64750;52.134;5.424;2023-06-22T00:55:26;5.90;;;5.32;;
72085;SDS011;64750;52.134;5.424;2023-06-22T00:57:53;6.00;;;5.43;;
72085;SDS011;64750;52.134;5.424;2023-06-22T01:00:23;6.30;;;5.57;;
72085;SDS011;64750;52.134;5.424;2023-06-22T01:02:51;5.70;;;5.17;;
72085;SDS011;64750;52.134;5.424;2023-06-22T01:05:22;7.05;;;5.75;;
72085;SDS011;64750;52.134;5.424;2023-06-22T01:08:05;5.95;;;5.45;;
72085;SDS011;64750;52.134;5.424;2023-06-22T01:18:44;5.53;;;5.03;;
72085;SDS011;64750;52.134;5.424;2023-06-22T01:21:14;5.13;;;4.60;;
72085;SDS011;64750;52.134;5.424;2023-06-22T01:23:50;6.65;;;6.10;;
72085;SDS011;64750;52.134;5.424;2023-06-22T01:29:35;6.50;;;5.43;;
72085;SDS011;64750;52.134;5.424;2023-06-22T01:32:04;5.10;;;4.70;;
72085;SDS011;64750;52.134;5.424;2023-06-22T01:34:35;5.60;;;5.10;;
72085;SDS011;64750;52.134;5.424;2023-06-22T01:37:03;5.45;;;4.88;;
72085;SDS011;64750;52.134;5.424;2023-06-22T01:39:30;5.78;;;4.95;;
72085;SDS011;64750;52.134;5.424;2023-06-22T01:41:58;5.80;;;5.30;;
72085;SDS011;64750;52.134;5.424;2023-06-22T01:44:25;5.45;;;5.00;;
72085;SDS011;64750;52.134;5.424;2023-06-22T01:46:53;8.15;;;5.47;;
72085;SDS011;64750;52.134;5.424;2023-06-22T01:49:19;5.82;;;5.13;;
72085;SDS011;64750;52.134;5.424;2023-06-22T01:51:46;6.13;;;5.55;;
72085;SDS011;64750;52.134;5.424;2023-06-22T01:54:13;5.47;;;5.03;;
72085;SDS011;64750;52.134;5.424;2023-06-22T01:56:39;6.10;;;5.60;;
72085;SDS011;64750;52.134;5.424;2023-06-22T01:59:14;6.57;;;5.82;;
72085;SDS011;64750;52.134;5.424;2023-06-22T02:01:55;5.93;;;5.35;;
72085;SDS011;64750;52.134;5.424;2023-06-22T02:04:27;5.82;;;5.32;;
72085;SDS011;64750;52.134;5.424;2023-06-22T02:07:01;7.90;;;5.50;;
72085;SDS011;64750;52.134;5.424;2023-06-22T02:09:35;5.93;;;5.43;;
72085;SDS011;64750;52.134;5.424;2023-06-22T02:12:04;5.93;;;5.53;;
72085;SDS011;64750;52.134;5.424;2023-06-22T02:14:34;6.30;;;5.70;;
72085;SDS011;64750;52.134;5.424;2023-06-22T02:17:02;6.60;;;5.60;;
72085;SDS011;64750;52.134;5.424;2023-06-22T02:19:36;6.20;;;5.70;;
72085;SDS011;64750;52.134;5.424;2023-06-22T02:22:03;5.72;;;5.22;;
72085;SDS011;64750;52.134;5.424;2023-06-22T02:24:30;6.32;;;5.40;;
72085;SDS011;64750;52.134;5.424;2023-06-22T02:26:58;5.90;;;5.40;;
72085;SDS011;64750;52.134;5.424;2023-06-22T02:29:25;6.30;;;5.78;;
72085;SDS011;64750;52.134;5.424;2023-06-22T02:31:53;6.13;;;5.53;;
72085;SDS011;64750;52.134;5.424;2023-06-22T02:34:20;10.60;;;5.97;;
72085;SDS011;64750;52.134;5.424;2023-06-22T02:36:48;6.40;;;5.90;;
72085;SDS011;64750;52.134;5.424;2023-06-22T02:39:22;6.30;;;5.75;;
72085;SDS011;64750;52.134;5.424;2023-06-22T02:41:51;5.90;;;5.40;;
72085;SDS011;64750;52.134;5.424;2023-06-22T02:44:19;6.20;;;5.67;;
72085;SDS011;64750;52.134;5.424;2023-06-22T02:46:46;6.38;;;5.88;;
72085;SDS011;64750;52.134;5.424;2023-06-22T02:49:13;6.88;;;6.03;;
72085;SDS011;64750;52.134;5.424;2023-06-22T02:51:42;6.85;;;6.10;;
72085;SDS011;64750;52.134;5.424;2023-06-22T02:54:11;6.45;;;5.75;;
72085;SDS011;64750;52.134;5.424;2023-06-22T02:56:37;6.20;;;5.70;;
72085;SDS011;64750;52.134;5.424;2023-06-22T02:59:04;8.15;;;5.90;;
72085;SDS011;64750;52.134;5.424;2023-06-22T03:01:30;6.47;;;5.75;;
72085;SDS011;64750;52.134;5.424;2023-06-22T03:03:57;5.80;;;5.30;;
72085;SDS011;64750;52.134;5.424;2023-06-22T03:06:23;6.50;;;5.60;;
72085;SDS011;64750;52.134;5.424;2023-06-22T03:08:58;6.40;;;5.90;;
72085;SDS011;64750;52.134;5.424;2023-06-22T03:11:26;6.38;;;5.78;;
72085;SDS011;64750;52.134;5.424;2023-06-22T03:13:53;6.53;;;5.72;;
72085;SDS011;64750;52.134;5.424;2023-06-22T03:16:19;6.15;;;5.55;;
72085;SDS011;64750;52.134;5.424;2023-06-22T03:18:46;6.65;;;6.05;;
72085;SDS011;64750;52.134;5.424;2023-06-22T03:21:12;6.63;;;6.03;;
72085;SDS011;64750;52.134;5.424;2023-06-22T03:23:41;8.48;;;6.18;;
72085;SDS011;64750;52.134;5.424;2023-06-22T03:26:08;6.28;;;5.78;;
72085;SDS011;64750;52.134;5.424;2023-06-22T03:28:36;6.97;;;5.78;;
72085;SDS011;64750;52.134;5.424;2023-06-22T03:31:03;6.38;;;5.78;;
72085;SDS011;64750;52.134;5.424;2023-06-22T03:33:32;6.43;;;5.93;;
72085;SDS011;64750;52.134;5.424;2023-06-22T03:35:59;6.80;;;6.30;;
72085;SDS011;64750;52.134;5.424;2023-06-22T03:38:25;7.18;;;6.50;;
72085;SDS011;64750;52.134;5.424;2023-06-22T03:40:52;7.78;;;6.93;;
72085;SDS011;64750;52.134;5.424;2023-06-22T03:43:18;7.70;;;6.25;;
72085;SDS011;64750;52.134;5.424;2023-06-22T03:45:45;6.80;;;6.13;;
72085;SDS011;64750;52.134;5.424;2023-06-22T03:48:12;8.52;;;5.82;;
72085;SDS011;64750;52.134;5.424;2023-06-22T03:50:38;7.35;;;6.63;;
72085;SDS011;64750;52.134;5.424;2023-06-22T03:53:05;7.30;;;6.70;;
72085;SDS011;64750;52.134;5.424;2023-06-22T03:55:31;6.95;;;6.35;;
72085;SDS011;64750;52.134;5.424;2023-06-22T03:57:57;7.80;;;6.07;;
72085;SDS011;64750;52.134;5.424;2023-06-22T04:00:24;7.60;;;6.53;;
72085;SDS011;64750;52.134;5.424;2023-06-22T04:02:51;7.07;;;6.45;;
72085;SDS011;64750;52.134;5.424;2023-06-22T04:05:17;7.28;;;6.70;;
72085;SDS011;64750;52.134;5.424;2023-06-22T04:07:45;7.93;;;7.22;;
72085;SDS011;64750;52.134;5.424;2023-06-22T04:10:11;7.40;;;6.70;;
72085;SDS011;64750;52.134;5.424;2023-06-22T04:12:39;7.85;;;7.25;;
72085;SDS011;64750;52.134;5.424;2023-06-22T04:15:06;6.95;;;6.45;;
72085;SDS011;64750;52.134;5.424;2023-06-22T04:17:33;8.20;;;7.35;;
72085;SDS011;64750;52.134;5.424;2023-06-22T04:19:59;9.45;;;6.10;;
72085;SDS011;64750;52.134;5.424;2023-06-22T04:22:26;6.80;;;6.17;;
72085;SDS011;64750;52.134;5.424;2023-06-22T04:24:52;7.65;;;6.97;;
72085;SDS011;64750;52.134;5.424;2023-06-22T04:27:19;8.23;;;7.25;;
72085;SDS011;64750;52.134;5.424;2023-06-22T04:29:45;8.35;;;7.63;;
72085;SDS011;64750;52.134;5.424;2023-06-22T04:32:15;8.30;;;7.45;;
72085;SDS011;64750;52.134;5.424;2023-06-22T04:34:42;8.87;;;7.97;;
72085;SDS011;64750;52.134;5.424;2023-06-22T04:37:09;8.93;;;8.02;;
72085;SDS011;64750;52.134;5.424;2023-06-22T04:39:39;11.40;;;8.88;;
72085;SDS011;64750;52.134;5.424;2023-06-22T04:42:09;10.60;;;8.73;;
72085;SDS011;64750;52.134;5.424;2023-06-22T04:44:36;11.23;;;9.52;;
72085;SDS011;64750;52.134;5.424;2023-06-22T04:47:02;9.83;;;8.90;;
72085;SDS011;64750;52.134;5.424;2023-06-22T04:49:30;11.48;;;8.98;;
72085;SDS011;64750;52.134;5.424;2023-06-22T04:52:04;10.48;;;9.07;;
72085;SDS011;64750;52.134;5.424;2023-06-22T04:54:32;13.20;;;10.55;;
72085;SDS011;64750;52.134;5.424;2023-06-22T04:57:00;13.35;;;9.95;;
72085;SDS011;64750;52.134;5.424;2023-06-22T04:59:27;12.57;;;10.53;;
72085;SDS011;64750;52.134;5.424;2023-06-22T05:01:56;13.85;;;11.48;;
72085;SDS011;64750;52.134;5.424;2023-06-22T05:04:24;13.63;;;12.23;;
72085;SDS011;64750;52.134;5.424;2023-06-22T05:06:51;14.60;;;11.43;;
72085;SDS011;64750;52.134;5.424;2023-06-22T05:09:18;13.85;;;11.77;;
72085;SDS011;64750;52.134;5.424;2023-06-22T05:11:45;14.57;;;12.00;;
72085;SDS011;64750;52.134;5.424;2023-06-22T05:14:13;14.88;;;12.07;;
72085;SDS011;64750;52.134;5.424;2023-06-22T05:16:41;17.65;;;14.10;;
72085;SDS011;64750;52.134;5.424;2023-06-22T05:19:08;14.73;;;13.27;;
72085;SDS011;64750;52.134;5.424;2023-06-22T05:21:35;18.27;;;13.13;;
72085;SDS011;64750;52.134;5.424;2023-06-22T05:24:01;16.00;;;13.53;;
72085;SDS011;64750;52.134;5.424;2023-06-22T05:26:29;15.20;;;13.32;;
72085;SDS011;64750;52.134;5.424;2023-06-22T05:28:57;17.08;;;12.73;;
72085;SDS011;64750;52.134;5.424;2023-06-22T05:31:23;15.02;;;12.93;;
72085;SDS011;64750;52.134;5.424;2023-06-22T05:33:51;20.45;;;14.05;;
72085;SDS011;64750;52.134;5.424;2023-06-22T05:36:19;18.40;;;14.13;;
72085;SDS011;64750;52.134;5.424;2023-06-22T05:38:47;466.90;;;66.88;;
72085;SDS011;64750;52.134;5.424;2023-06-22T05:41:13;320.63;;;40.80;;
72085;SDS011;64750;52.134;5.424;2023-06-22T05:43:40;37.67;;;17.52;;
72085;SDS011;64750;52.134;5.424;2023-06-22T05:46:07;24.40;;;15.70;;
72085;SDS011;64750;52.134;5.424;2023-06-22T05:48:33;19.73;;;16.60;;
72085;SDS011;64750;52.134;5.424;2023-06-22T05:50:59;22.95;;;15.73;;
72085;SDS011;64750;52.134;5.424;2023-06-22T05:53:26;23.15;;;16.48;;
72085;SDS011;64750;52.134;5.424;2023-06-22T05:55:53;22.17;;;16.20;;
72085;SDS011;64750;52.134;5.424;2023-06-22T05:58:19;25.17;;;17.95;;
72085;SDS011;64750;52.134;5.424;2023-06-22T06:00:46;23.53;;;16.93;;
72085;SDS011;64750;52.134;5.424;2023-06-22T06:03:12;19.45;;;16.58;;
72085;SDS011;64750;52.134;5.424;2023-06-22T06:05:43;22.65;;;18.33;;
72085;SDS011;64750;52.134;5.424;2023-06-22T06:08:10;21.42;;;17.27;;
72085;SDS011;64750;52.134;5.424;2023-06-22T06:10:38;23.90;;;18.73;;
72085;SDS011;64750;52.134;5.424;2023-06-22T06:13:05;21.23;;;18.10;;
72085;SDS011;64750;52.134;5.424;2023-06-22T06:15:32;21.13;;;16.52;;
72085;SDS011;64750;52.134;5.424;2023-06-22T06:18:01;20.10;;;16.65;;
72085;SDS011;64750;52.134;5.424;2023-06-22T06:20:30;19.45;;;17.27;;
72085;SDS011;64750;52.134;5.424;2023-06-22T06:22:58;24.20;;;17.50;;
72085;SDS011;64750;52.134;5.424;2023-06-22T06:25:24;19.30;;;16.83;;
72085;SDS011;64750;52.134;5.424;2023-06-22T06:27:52;21.38;;;18.17;;
72085;SDS011;64750;52.134;5.424;2023-06-22T06:30:21;21.85;;;17.60;;
72085;SDS011;64750;52.134;5.424;2023-06-22T06:32:49;21.42;;;17.02;;
72085;SDS011;64750;52.134;5.424;2023-06-22T06:35:16;22.63;;;18.02;;
72085;SDS011;64750;52.134;5.424;2023-06-22T06:37:44;17.77;;;15.87;;
72085;SDS011;64750;52.134;5.424;2023-06-22T06:40:12;19.73;;;16.83;;
72085;SDS011;64750;52.134;5.424;2023-06-22T06:42:43;20.23;;;15.82;;
72085;SDS011;64750;52.134;5.424;2023-06-22T06:45:12;19.80;;;16.73;;
72085;SDS011;64750;52.134;5.424;2023-06-22T06:47:50;28.83;;;16.77;;
72085;SDS011;64750;52.134;5.424;2023-06-22T06:50:18;17.90;;;15.03;;
72085;SDS011;64750;52.134;5.424;2023-06-22T06:52:45;19.30;;;17.20;;
72085;SDS011;64750;52.134;5.424;2023-06-22T06:55:11;20.27;;;15.90;;
72085;SDS011;64750;52.134;5.424;2023-06-22T06:57:39;21.27;;;15.75;;
72085;SDS011;64750;52.134;5.424;2023-06-22T07:00:06;18.65;;;15.93;;
72085;SDS011;64750;52.134;5.424;2023-06-22T07:02:41;18.50;;;16.43;;
72085;SDS011;64750;52.134;5.424;2023-06-22T07:05:10;19.60;;;16.38;;
72085;SDS011;64750;52.134;5.424;2023-06-22T07:07:38;17.70;;;15.05;;
72085;SDS011;64750;52.134;5.424;2023-06-22T07:10:05;16.83;;;15.13;;
72085;SDS011;64750;52.134;5.424;2023-06-22T07:12:32;18.15;;;14.88;;
72085;SDS011;64750;52.134;5.424;2023-06-22T07:15:08;18.30;;;13.80;;
72085;SDS011;64750;52.134;5.424;2023-06-22T07:17:36;15.45;;;13.80;;
72085;SDS011;64750;52.134;5.424;2023-06-22T07:20:03;16.45;;;12.63;;
72085;SDS011;64750;52.134;5.424;2023-06-22T07:22:38;14.30;;;12.10;;
72085;SDS011;64750;52.134;5.424;2023-06-22T07:25:05;16.02;;;12.55;;
72085;SDS011;64750;52.134;5.424;2023-06-22T07:27:39;14.20;;;12.20;;
72085;SDS011;64750;52.134;5.424;2023-06-22T07:30:10;15.07;;;13.02;;
72085;SDS011;64750;52.134;5.424;2023-06-22T07:32:37;14.45;;;12.63;;
72085;SDS011;64750;52.134;5.424;2023-06-22T07:35:04;12.88;;;11.70;;
72085;SDS011;64750;52.134;5.424;2023-06-22T07:37:31;12.93;;;11.15;;
72085;SDS011;64750;52.134;5.424;2023-06-22T07:39:59;13.93;;;12.07;;
72085;SDS011;64750;52.134;5.424;2023-06-22T07:42:26;13.30;;;12.02;;
72085;SDS011;64750;52.134;5.424;2023-06-22T07:44:53;16.58;;;12.32;;
72085;SDS011;64750;52.134;5.424;2023-06-22T07:47:20;12.90;;;11.65;;
72085;SDS011;64750;52.134;5.424;2023-06-22T07:49:51;12.73;;;11.25;;
72085;SDS011;64750;52.134;5.424;2023-06-22T07:52:18;13.77;;;12.27;;
72085;SDS011;64750;52.134;5.424;2023-06-22T07:54:44;14.65;;;12.32;;
72085;SDS011;64750;52.134;5.424;2023-06-22T07:57:11;14.48;;;12.30;;
72085;SDS011;64750;52.134;5.424;2023-06-22T07:59:37;13.38;;;11.35;;
72085;SDS011;64750;52.134;5.424;2023-06-22T08:02:04;13.82;;;12.43;;
72085;SDS011;64750;52.134;5.424;2023-06-22T08:04:31;11.60;;;10.50;;
72085;SDS011;64750;52.134;5.424;2023-06-22T08:07:00;15.80;;;10.82;;
72085;SDS011;64750;52.134;5.424;2023-06-22T08:09:31;11.73;;;10.55;;
72085;SDS011;64750;52.134;5.424;2023-06-22T08:11:59;10.90;;;9.80;;
72085;SDS011;64750;52.134;5.424;2023-06-22T08:14:26;10.90;;;9.82;;
72085;SDS011;64750;52.134;5.424;2023-06-22T08:16:53;11.13;;;9.90;;
72085;SDS011;64750;52.134;5.424;2023-06-22T08:19:19;11.15;;;9.82;;
72085;SDS011;64750;52.134;5.424;2023-06-22T08:21:46;14.27;;;9.60;;
72085;SDS011;64750;52.134;5.424;2023-06-22T08:24:12;11.50;;;10.40;;
72085;SDS011;64750;52.134;5.424;2023-06-22T08:26:39;13.07;;;9.18;;
72085;SDS011;64750;52.134;5.424;2023-06-22T08:29:05;8.90;;;8.00;;
72085;SDS011;64750;52.134;5.424;2023-06-22T08:31:32;11.05;;;10.13;;
72085;SDS011;64750;52.134;5.424;2023-06-22T08:34:00;9.07;;;8.18;;
72085;SDS011;64750;52.134;5.424;2023-06-22T08:36:27;9.18;;;8.32;;
72085;SDS011;64750;52.134;5.424;2023-06-22T08:38:56;10.52;;;8.50;;
72085;SDS011;64750;52.134;5.424;2023-06-22T08:41:23;9.77;;;8.93;;
72085;SDS011;64750;52.134;5.424;2023-06-22T08:43:51;8.98;;;7.72;;
72085;SDS011;64750;52.134;5.424;2023-06-22T08:46:18;7.40;;;6.68;;
72085;SDS011;64750;52.134;5.424;2023-06-22T08:48:49;9.90;;;6.65;;
72085;SDS011;64750;52.134;5.424;2023-06-22T08:51:16;8.48;;;7.32;;
72085;SDS011;64750;52.134;5.424;2023-06-22T08:53:43;8.30;;;7.43;;
72085;SDS011;64750;52.134;5.424;2023-06-22T08:56:11;7.55;;;6.85;;
72085;SDS011;64750;52.134;5.424;2023-06-22T08:58:38;6.38;;;5.78;;
72085;SDS011;64750;52.134;5.424;2023-06-22T09:01:04;7.05;;;6.07;;
72085;SDS011;64750;52.134;5.424;2023-06-22T09:03:30;6.70;;;5.00;;
72085;SDS011;64750;52.134;5.424;2023-06-22T09:05:59;5.20;;;4.70;;
72085;SDS011;64750;52.134;5.424;2023-06-22T09:08:25;5.60;;;4.95;;
72085;SDS011;64750;52.134;5.424;2023-06-22T09:10:52;4.95;;;4.53;;
72085;SDS011;64750;52.134;5.424;2023-06-22T09:13:18;4.43;;;4.03;;
72085;SDS011;64750;52.134;5.424;2023-06-22T09:15:45;5.35;;;4.78;;
72085;SDS011;64750;52.134;5.424;2023-06-22T09:18:12;5.43;;;4.77;;
72085;SDS011;64750;52.134;5.424;2023-06-22T09:20:39;6.65;;;5.13;;
72085;SDS011;64750;52.134;5.424;2023-06-22T09:23:06;5.30;;;4.90;;
72085;SDS011;64750;52.134;5.424;2023-06-22T09:25:32;7.55;;;4.80;;
72085;SDS011;64750;52.134;5.424;2023-06-22T09:27:58;7.65;;;5.20;;
72085;SDS011;64750;52.134;5.424;2023-06-22T09:30:25;4.83;;;4.03;;
72085;SDS011;64750;52.134;5.424;2023-06-22T09:32:52;6.47;;;4.75;;
72085;SDS011;64750;52.134;5.424;2023-06-22T09:35:18;6.68;;;4.03;;
72085;SDS011;64750;52.134;5.424;2023-06-22T09:37:45;5.40;;;4.90;;
72085;SDS011;64750;52.134;5.424;2023-06-22T09:40:12;4.07;;;3.78;;
72085;SDS011;64750;52.134;5.424;2023-06-22T09:42:39;4.00;;;3.70;;
72085;SDS011;64750;52.134;5.424;2023-06-22T09:45:07;6.15;;;4.00;;
72085;SDS011;64750;52.134;5.424;2023-06-22T09:47:34;6.07;;;5.18;;
72085;SDS011;64750;52.134;5.424;2023-06-22T09:50:01;5.38;;;4.88;;
72085;SDS011;64750;52.134;5.424;2023-06-22T09:52:27;5.07;;;4.47;;
72085;SDS011;64750;52.134;5.424;2023-06-22T09:55:12;4.83;;;4.43;;
72085;SDS011;64750;52.134;5.424;2023-06-22T09:57:39;4.95;;;4.20;;
72085;SDS011;64750;52.134;5.424;2023-06-22T10:00:05;5.50;;;5.00;;
72085;SDS011;64750;52.134;5.424;2023-06-22T10:02:35;6.18;;;4.90;;
72085;SDS011;64750;52.134;5.424;2023-06-22T10:05:02;5.97;;;4.40;;
72085;SDS011;64750;52.134;5.424;2023-06-22T10:07:29;6.40;;;4.23;;
72085;SDS011;64750;52.134;5.424;2023-06-22T10:09:56;4.20;;;3.90;;
72085;SDS011;64750;52.134;5.424;2023-06-22T10:12:22;5.13;;;3.65;;
72085;SDS011;64750;52.134;5.424;2023-06-22T10:14:48;5.65;;;3.95;;
72085;SDS011;64750;52.134;5.424;2023-06-22T10:17:15;3.72;;;3.35;;
72085;SDS011;64750;52.134;5.424;2023-06-22T10:19:42;3.47;;;2.93;;
72085;SDS011;64750;52.134;5.424;2023-06-22T10:22:08;3.60;;;3.30;;
72085;SDS011;64750;52.134;5.424;2023-06-22T10:24:35;3.05;;;2.70;;
72085;SDS011;64750;52.134;5.424;2023-06-22T10:27:01;3.30;;;3.00;;
72085;SDS011;64750;52.134;5.424;2023-06-22T10:29:28;4.75;;;4.35;;
72085;SDS011;64750;52.134;5.424;2023-06-22T10:31:54;5.73;;;4.60;;
72085;SDS011;64750;52.134;5.424;2023-06-22T10:34:21;6.38;;;3.78;;
72085;SDS011;64750;52.134;5.424;2023-06-22T10:36:47;4.50;;;4.10;;
72085;SDS011;64750;52.134;5.424;2023-06-22T10:39:15;4.80;;;4.40;;
72085;SDS011;64750;52.134;5.424;2023-06-22T10:41:41;4.47;;;4.18;;
72085;SDS011;64750;52.134;5.424;2023-06-22T10:44:07;6.87;;;4.90;;
72085;SDS011;64750;52.134;5.424;2023-06-22T10:46:34;4.75;;;4.18;;
72085;SDS011;64750;52.134;5.424;2023-06-22T10:49:00;4.18;;;3.88;;
72085;SDS011;64750;52.134;5.424;2023-06-22T10:51:27;7.80;;;4.90;;
72085;SDS011;64750;52.134;5.424;2023-06-22T10:53:54;5.93;;;4.20;;
72085;SDS011;64750;52.134;5.424;2023-06-22T10:56:20;4.33;;;4.03;;
72085;SDS011;64750;52.134;5.424;2023-06-22T10:58:47;5.47;;;4.97;;
72085;SDS011;64750;52.134;5.424;2023-06-22T11:01:14;4.68;;;4.28;;
72085;SDS011;64750;52.134;5.424;2023-06-22T11:03:59;4.60;;;4.18;;
72085;SDS011;64750;52.134;5.424;2023-06-22T11:06:25;5.20;;;4.78;;
72085;SDS011;64750;52.134;5.424;2023-06-22T11:08:52;4.80;;;4.40;;
72085;SDS011;64750;52.134;5.424;2023-06-22T11:11:37;4.75;;;4.35;;
72085;SDS011;64750;52.134;5.424;2023-06-22T11:14:03;4.82;;;4.28;;
72085;SDS011;64750;52.134;5.424;2023-06-22T11:16:30;4.85;;;4.45;;
72085;SDS011;64750;52.134;5.424;2023-06-22T11:18:56;5.72;;;4.18;;
72085;SDS011;64750;52.134;5.424;2023-06-22T11:21:23;4.40;;;4.00;;
72085;SDS011;64750;52.134;5.424;2023-06-22T11:23:49;5.07;;;4.53;;
72085;SDS011;64750;52.134;5.424;2023-06-22T11:26:16;5.97;;;5.57;;
72085;SDS011;64750;52.134;5.424;2023-06-22T11:28:43;5.13;;;4.72;;
72085;SDS011;64750;52.134;5.424;2023-06-22T11:31:09;6.95;;;5.10;;
72085;SDS011;64750;52.134;5.424;2023-06-22T11:33:51;5.30;;;4.87;;
72085;SDS011;64750;52.134;5.424;2023-06-22T11:36:18;22.45;;;7.40;;
72085;SDS011;64750;52.134;5.424;2023-06-22T11:38:44;8.60;;;6.97;;
72085;SDS011;64750;52.134;5.424;2023-06-22T11:41:11;7.85;;;7.18;;
72085;SDS011;64750;52.134;5.424;2023-06-22T11:43:37;10.05;;;7.05;;
72085;SDS011;64750;52.134;5.424;2023-06-22T11:46:04;9.87;;;6.80;;
72085;SDS011;64750;52.134;5.424;2023-06-22T11:48:30;10.02;;;8.38;;
72085;SDS011;64750;52.134;5.424;2023-06-22T11:50:57;9.40;;;8.15;;
72085;SDS011;64750;52.134;5.424;2023-06-22T11:53:26;31.25;;;8.80;;
72085;SDS011;64750;52.134;5.424;2023-06-22T11:55:53;14.15;;;6.65;;
72085;SDS011;64750;52.134;5.424;2023-06-22T11:58:21;26.07;;;10.07;;
72085;SDS011;64750;52.134;5.424;2023-06-22T12:00:48;22.75;;;8.70;;
72085;SDS011;64750;52.134;5.424;2023-06-22T12:03:18;10.68;;;8.38;;
72085;SDS011;64750;52.134;5.424;2023-06-22T12:05:45;48.67;;;11.88;;
72085;SDS011;64750;52.134;5.424;2023-06-22T12:08:12;11.63;;;8.75;;
72085;SDS011;64750;52.134;5.424;2023-06-22T12:10:40;8.73;;;7.97;;
72085;SDS011;64750;52.134;5.424;2023-06-22T12:13:06;8.95;;;7.90;;
72085;SDS011;64750;52.134;5.424;2023-06-22T12:15:33;11.98;;;7.88;;
72085;SDS011;64750;52.134;5.424;2023-06-22T12:17:59;8.95;;;7.95;;
72085;SDS011;64750;52.134;5.424;2023-06-22T12:20:27;8.50;;;7.72;;
72085;SDS011;64750;52.134;5.424;2023-06-22T12:22:54;8.83;;;7.40;;
72085;SDS011;64750;52.134;5.424;2023-06-22T12:25:22;10.43;;;8.95;;
72085;SDS011;64750;52.134;5.424;2023-06-22T12:27:48;10.77;;;8.07;;
72085;SDS011;64750;52.134;5.424;2023-06-22T12:30:15;9.60;;;8.80;;
72085;SDS011;64750;52.134;5.424;2023-06-22T12:32:42;9.45;;;8.68;;
72085;SDS011;64750;52.134;5.424;2023-06-22T12:35:09;9.00;;;8.13;;
72085;SDS011;64750;52.134;5.424;2023-06-22T12:37:40;11.88;;;8.82;;
72085;SDS011;64750;52.134;5.424;2023-06-22T12:40:08;9.35;;;8.50;;
72085;SDS011;64750;52.134;5.424;2023-06-22T12:42:36;8.55;;;7.90;;
72085;SDS011;64750;52.134;5.424;2023-06-22T12:45:02;8.43;;;7.72;;
72085;SDS011;64750;52.134;5.424;2023-06-22T12:47:29;8.10;;;7.40;;
72085;SDS011;64750;52.134;5.424;2023-06-22T12:49:56;7.40;;;6.70;;
72085;SDS011;64750;52.134;5.424;2023-06-22T12:52:23;7.18;;;6.47;;
72085;SDS011;64750;52.134;5.424;2023-06-22T12:54:49;6.97;;;6.47;;
72085;SDS011;64750;52.134;5.424;2023-06-22T12:57:21;6.05;;;5.47;;
72085;SDS011;64750;52.134;5.424;2023-06-22T12:59:47;6.23;;;5.53;;
72085;SDS011;64750;52.134;5.424;2023-06-22T13:02:14;8.63;;;6.13;;
72085;SDS011;64750;52.134;5.424;2023-06-22T13:04:41;7.00;;;6.40;;
72085;SDS011;64750;52.134;5.424;2023-06-22T13:07:07;7.13;;;6.63;;
72085;SDS011;64750;52.134;5.424;2023-06-22T13:09:47;7.07;;;6.47;;
72085;SDS011;64750;52.134;5.424;2023-06-22T13:12:17;6.80;;;6.20;;
72085;SDS011;64750;52.134;5.424;2023-06-22T13:14:44;6.43;;;5.88;;
72085;SDS011;64750;52.134;5.424;2023-06-22T13:17:12;7.93;;;6.30;;
72085;SDS011;64750;52.134;5.424;2023-06-22T13:19:40;6.40;;;5.90;;
72085;SDS011;64750;52.134;5.424;2023-06-22T13:24:55;10.30;;;7.33;;
72085;SDS011;64750;52.134;5.424;2023-06-22T13:27:22;7.20;;;6.70;;
72085;SDS011;64750;52.134;5.424;2023-06-22T13:29:49;8.35;;;7.70;;
72085;SDS011;64750;52.134;5.424;2023-06-22T13:32:15;8.60;;;7.80;;
72085;SDS011;64750;52.134;5.424;2023-06-22T13:34:42;8.75;;;7.80;;
72085;SDS011;64750;52.134;5.424;2023-06-22T13:37:09;7.93;;;7.27;;
72085;SDS011;64750;52.134;5.424;2023-06-22T13:39:36;9.40;;;7.10;;
72085;SDS011;64750;52.134;5.424;2023-06-22T13:42:02;9.70;;;8.57;;
72085;SDS011;64750;52.134;5.424;2023-06-22T13:44:29;8.07;;;7.30;;
72085;SDS011;64750;52.134;5.424;2023-06-22T13:46:55;8.88;;;8.02;;
72085;SDS011;64750;52.134;5.424;2023-06-22T13:49:22;9.53;;;8.50;;
72085;SDS011;64750;52.134;5.424;2023-06-22T13:51:49;8.32;;;7.55;;
72085;SDS011;64750;52.134;5.424;2023-06-22T13:54:16;8.65;;;7.78;;
72085;SDS011;64750;52.134;5.424;2023-06-22T13:56:55;8.82;;;8.02;;
72085;SDS011;64750;52.134;5.424;2023-06-22T13:59:21;10.30;;;9.13;;
72085;SDS011;64750;52.134;5.424;2023-06-22T14:01:48;10.20;;;8.57;;
72085;SDS011;64750;52.134;5.424;2023-06-22T14:04:14;13.35;;;9.38;;
72085;SDS011;64750;52.134;5.424;2023-06-22T14:06:41;9.77;;;8.88;;
72085;SDS011;64750;52.134;5.424;2023-06-22T14:09:07;9.77;;;8.80;;
72085;SDS011;64750;52.134;5.424;2023-06-22T14:11:34;13.80;;;9.45;;
72085;SDS011;64750;52.134;5.424;2023-06-22T14:14:00;9.80;;;8.80;;
72085;SDS011;64750;52.134;5.424;2023-06-22T14:16:27;9.65;;;8.85;;
72085;SDS011;64750;52.134;5.424;2023-06-22T14:18:53;10.95;;;9.02;;
72085;SDS011;64750;52.134;5.424;2023-06-22T14:21:23;9.85;;;8.88;;
72085;SDS011;64750;52.134;5.424;2023-06-22T14:23:49;10.63;;;9.55;;
72085;SDS011;64750;52.134;5.424;2023-06-22T14:26:16;10.07;;;9.10;;
72085;SDS011;64750;52.134;5.424;2023-06-22T14:28:46;9.60;;;8.63;;
72085;SDS011;64750;52.134;5.424;2023-06-22T14:31:14;10.02;;;9.02;;
72085;SDS011;64750;52.134;5.424;2023-06-22T14:33:43;10.18;;;9.38;;
72085;SDS011;64750;52.134;5.424;2023-06-22T14:36:12;10.95;;;9.95;;
72085;SDS011;64750;52.134;5.424;2023-06-22T14:38:43;9.80;;;9.03;;
72085;SDS011;64750;52.134;5.424;2023-06-22T14:41:10;12.40;;;9.63;;
72085;SDS011;64750;52.134;5.424;2023-06-22T14:43:47;11.57;;;9.95;;
72085;SDS011;64750;52.134;5.424;2023-06-22T14:46:18;10.88;;;9.88;;
72085;SDS011;64750;52.134;5.424;2023-06-22T14:48:45;11.02;;;10.02;;
72085;SDS011;64750;52.134;5.424;2023-06-22T14:51:12;10.73;;;9.43;;
72085;SDS011;64750;52.134;5.424;2023-06-22T14:53:45;11.07;;;10.00;;
72085;SDS011;64750;52.134;5.424;2023-06-22T14:56:12;10.77;;;9.75;;
72085;SDS011;64750;52.134;5.424;2023-06-22T14:58:41;11.43;;;10.27;;